Time;durP1;ratioP1;P1;durP2;ratioP2;P2;SDS_P1;SDS_P2;PMS_P1;PMS_P2;Temp;Humidity;BMP_temperature;BMP_pressure;BME280_temperature;BME280_humidity;BME280_pressure;Samples;Min_cycle;Max_cycle;Signal;HPM_P1;HPM_P2
2024/03/30 00:00:01;;;;;;;0.80;0.65;;;;;;;10.96;100.00;99224.41;4890890;29;20040;-84
2024/03/30 00:02:27;;;;;;;0.65;0.65;;;;;;;11.00;100.00;99233.03;4906904;29;20047;-88
2024/03/30 00:04:55;;;;;;;0.60;0.60;;;;;;;11.00;100.00;99239.13;4908786;29;20048;-85
2024/03/30 00:07:26;;;;;;;0.70;0.68;;;;;;;11.02;100.00;99228.59;4904703;29;20103;-88
2024/03/30 00:09:52;;;;;;;1.05;0.73;;;;;;;11.01;100.00;99229.50;4902852;29;20060;-84
2024/03/30 00:12:23;;;;;;;0.88;0.88;;;;;;;11.00;100.00;99233.91;4891693;29;20044;-85
2024/03/30 00:14:51;;;;;;;1.10;0.60;;;;;;;11.02;100.00;99226.81;4904968;29;20602;-86
2024/03/30 00:17:17;;;;;;;2.38;0.80;;;;;;;11.04;100.00;99234.63;4906359;29;20036;-85
2024/03/30 00:19:43;;;;;;;0.50;0.50;;;;;;;11.03;100.00;99249.50;4891419;29;20052;-88
2024/03/30 00:22:09;;;;;;;1.45;0.63;;;;;;;11.06;100.00;99244.13;4906766;29;20052;-89
2024/03/30 00:24:38;;;;;;;2.47;0.60;;;;;;;11.04;100.00;99248.59;4905682;29;20119;-86
2024/03/30 00:27:04;;;;;;;1.67;0.47;;;;;;;11.07;100.00;99245.84;4892763;29;20052;-87
2024/03/30 00:29:31;;;;;;;1.98;0.93;;;;;;;11.08;100.00;99268.53;4890913;29;20147;-83
2024/03/30 00:32:00;;;;;;;0.38;0.38;;;;;;;11.09;100.00;99271.97;4908126;29;20048;-86
2024/03/30 00:34:26;;;;;;;0.88;0.60;;;;;;;11.08;100.00;99265.03;4909459;29;20107;-85
2024/03/30 00:36:52;;;;;;;0.55;0.55;;;;;;;11.09;100.00;99259.78;4892484;29;20075;-89
2024/03/30 00:39:19;;;;;;;0.52;0.45;;;;;;;11.11;100.00;99257.09;4912187;29;20041;-88
2024/03/30 00:41:45;;;;;;;1.38;0.55;;;;;;;11.14;100.00;99274.47;4929187;29;20059;-88
2024/03/30 00:44:14;;;;;;;1.00;0.60;;;;;;;11.14;100.00;99277.94;4903852;29;20125;-86
2024/03/30 00:46:40;;;;;;;0.98;0.98;;;;;;;11.13;100.00;99293.69;4922175;29;20099;-86
2024/03/30 00:49:06;;;;;;;0.77;0.63;;;;;;;11.13;100.00;99283.22;4908476;29;20078;-86
2024/03/30 00:51:32;;;;;;;0.75;0.65;;;;;;;11.12;100.00;99299.84;4904909;29;20056;-88
2024/03/30 00:54:02;;;;;;;1.58;0.93;;;;;;;11.11;100.00;99296.38;4914160;29;20055;-86
2024/03/30 00:56:30;;;;;;;1.13;0.60;;;;;;;11.08;100.00;99294.72;4907201;29;20079;-87
2024/03/30 00:58:57;;;;;;;0.60;0.60;;;;;;;11.09;100.00;99321.75;4893484;29;20056;-84
2024/03/30 01:01:23;;;;;;;2.10;0.77;;;;;;;11.05;100.00;99322.75;4895360;29;20052;-88
2024/03/30 01:03:50;;;;;;;1.05;0.52;;;;;;;10.99;100.00;99318.59;4895443;29;20128;-86
2024/03/30 01:06:16;;;;;;;0.50;0.50;;;;;;;10.99;100.00;99325.56;4892809;29;20139;-86
2024/03/30 01:08:42;;;;;;;0.63;0.40;;;;;;;10.95;100.00;99335.31;4889021;29;20485;-88
2024/03/30 01:11:09;;;;;;;1.20;1.10;;;;;;;10.90;100.00;99324.97;4913107;29;20432;-88
2024/03/30 01:13:36;;;;;;;2.63;1.38;;;;;;;10.85;100.00;99324.25;4907975;29;20052;-85
2024/03/30 01:16:10;;;;;;;2.20;1.00;;;;;;;10.86;100.00;99309.38;4910604;29;20055;-89
2024/03/30 01:18:40;;;;;;;1.58;1.27;;;;;;;10.87;100.00;99313.72;4896813;29;20141;-86
2024/03/30 01:21:08;;;;;;;1.33;1.00;;;;;;;10.86;100.00;99322.47;4910132;29;20049;-84
2024/03/30 01:23:35;;;;;;;1.08;0.98;;;;;;;10.82;100.00;99329.59;4892713;29;20048;-89
2024/03/30 01:26:01;;;;;;;1.00;1.00;;;;;;;10.81;100.00;99319.13;4914655;29;20051;-87
2024/03/30 01:28:29;;;;;;;3.08;0.98;;;;;;;10.81;100.00;99327.00;4908595;29;20032;-86
2024/03/30 01:30:55;;;;;;;0.85;0.85;;;;;;;10.75;100.00;99291.41;4907177;29;20058;-86
2024/03/30 01:33:22;;;;;;;1.58;1.05;;;;;;;10.69;100.00;99278.50;4887045;29;20124;-87
2024/03/30 01:35:48;;;;;;;1.17;0.80;;;;;;;10.58;100.00;99287.56;4891376;29;20040;-87
2024/03/30 01:38:15;;;;;;;1.67;1.58;;;;;;;10.52;100.00;99277.28;4893153;29;20104;-84
2024/03/30 01:40:41;;;;;;;0.90;0.90;;;;;;;10.48;100.00;99286.16;4882589;29;20117;-84
2024/03/30 01:43:08;;;;;;;2.40;0.93;;;;;;;10.42;100.00;99275.88;4910123;29;20067;-86
2024/03/30 01:45:35;;;;;;;1.00;0.90;;;;;;;10.35;100.00;99285.66;4893366;29;20890;-85
2024/03/30 01:48:06;;;;;;;1.40;0.95;;;;;;;10.36;100.00;99271.66;4910659;29;20043;-86
2024/03/30 01:50:34;;;;;;;1.52;1.25;;;;;;;10.36;100.00;99281.28;4915656;29;20478;-85
2024/03/30 01:53:16;;;;;;;2.08;0.90;;;;;;;10.35;100.00;99269.06;4903381;29;20043;-85
2024/03/30 01:55:51;;;;;;;1.20;1.10;;;;;;;10.32;100.00;99269.16;4908491;29;20074;-85
2024/03/30 01:58:26;;;;;;;0.93;0.93;;;;;;;10.25;100.00;99269.34;4911487;29;20059;-83
2024/03/30 02:00:56;;;;;;;1.73;1.15;;;;;;;10.23;100.00;99254.59;4910244;29;20044;-88
2024/03/30 02:03:25;;;;;;;1.08;1.08;;;;;;;10.23;100.00;99262.44;4893299;29;20048;-85
2024/03/30 02:05:57;;;;;;;2.47;1.13;;;;;;;10.20;100.00;99260.78;4912270;29;20059;-85
2024/03/30 02:08:26;;;;;;;0.85;0.85;;;;;;;10.16;100.00;99255.69;4892248;29;20139;-84
2024/03/30 02:10:53;;;;;;;0.95;0.95;;;;;;;10.14;100.00;99252.25;4899853;29;20142;-86
2024/03/30 02:13:20;;;;;;;2.15;1.25;;;;;;;10.09;100.00;99258.47;4912492;29;20044;-86
2024/03/30 02:15:51;;;;;;;1.95;1.33;;;;;;;10.06;100.00;99250.75;4893865;29;20128;-82
2024/03/30 02:18:18;;;;;;;1.17;1.17;;;;;;;10.05;100.00;99261.22;4897720;29;20060;-87
2024/03/30 02:20:43;;;;;;;1.65;1.55;;;;;;;10.05;100.00;99261.22;4889028;29;20044;-86
2024/03/30 02:23:20;;;;;;;1.13;1.13;;;;;;;10.02;100.00;99259.56;4882698;29;20052;-87
2024/03/30 02:25:49;;;;;;;1.50;1.50;;;;;;;10.01;100.00;99262.22;4910311;29;20051;-84
2024/03/30 02:28:16;;;;;;;1.40;1.30;;;;;;;9.97;100.00;99250.97;4894520;29;20048;-88
2024/03/30 02:30:43;;;;;;;1.45;1.35;;;;;;;9.96;100.00;99249.28;4913277;29;20052;-85
2024/03/30 02:33:11;;;;;;;1.55;1.33;;;;;;;9.91;100.00;99252.03;4890443;29;20084;-89
2024/03/30 02:35:40;;;;;;;1.70;1.60;;;;;;;9.91;100.00;99248.56;4915207;29;20108;-83
2024/03/30 02:38:07;;;;;;;3.38;1.63;;;;;;;9.89;100.00;99245.13;4899078;29;20139;-87
2024/03/30 02:40:37;;;;;;;2.35;1.63;;;;;;;9.86;100.00;99246.06;4887797;29;20048;-89
2024/03/30 02:43:07;;;;;;;0.90;0.90;;;;;;;9.85;100.00;99248.75;4906276;29;20092;-89
2024/03/30 02:45:33;;;;;;;1.48;1.38;;;;;;;9.82;100.00;99239.22;4891901;29;20138;-89
2024/03/30 02:48:00;;;;;;;1.15;1.15;;;;;;;9.83;100.00;99234.84;4891558;29;20142;-86
2024/03/30 02:50:26;;;;;;;1.73;1.10;;;;;;;9.82;100.00;99238.38;4906188;29;20044;-84
2024/03/30 02:52:53;;;;;;;1.30;1.30;;;;;;;9.79;100.00;99241.06;4907006;29;20094;-84
2024/03/30 02:55:20;;;;;;;2.65;1.00;;;;;;;9.78;100.00;99227.16;4905927;29;20037;-88
2024/03/30 02:57:46;;;;;;;2.30;1.77;;;;;;;9.76;100.00;99229.81;4890972;29;20139;-86
2024/03/30 03:00:20;;;;;;;1.52;1.42;;;;;;;9.76;100.00;99227.19;4890641;29;20048;-89
2024/03/30 03:02:47;;;;;;;1.52;1.17;;;;;;;9.75;100.00;99233.31;4894571;29;20659;-84
2024/03/30 03:05:15;;;;;;;1.27;1.27;;;;;;;9.75;100.00;99232.44;4893836;29;20048;-89
2024/03/30 03:07:45;;;;;;;1.02;1.00;;;;;;;9.74;100.00;99236.81;4885939;29;20052;-88
2024/03/30 03:10:10;;;;;;;1.52;1.27;;;;;;;9.77;100.00;99228.03;4903918;29;20082;-83
2024/03/30 03:12:37;;;;;;;1.35;1.25;;;;;;;9.78;100.00;99227.16;4907421;29;20044;-88
2024/03/30 03:15:04;;;;;;;1.10;1.10;;;;;;;9.76;100.00;99228.94;4891083;29;20055;-86
2024/03/30 03:17:32;;;;;;;1.73;1.08;;;;;;;9.75;100.00;99206.31;4908717;29;20048;-87
2024/03/30 03:19:57;;;;;;;1.23;1.02;;;;;;;9.74;100.00;99204.63;4895090;29;20120;-88
2024/03/30 03:22:24;;;;;;;1.60;1.50;;;;;;;9.73;100.00;99206.38;4906142;29;20151;-89
2024/03/30 03:24:50;;;;;;;1.40;1.30;;;;;;;9.72;100.00;99209.88;4894285;29;20090;-88
2024/03/30 03:27:17;;;;;;;1.65;1.35;;;;;;;9.71;100.00;99207.31;4899135;29;20040;-85
2024/03/30 03:29:42;;;;;;;1.10;1.10;;;;;;;9.70;100.00;99211.69;4904340;29;20493;-86
2024/03/30 03:32:09;;;;;;;1.17;1.10;;;;;;;9.69;100.00;99215.19;4891753;29;20044;-90
2024/03/30 03:34:35;;;;;;;4.32;1.23;;;;;;;9.69;100.00;99196.06;4902299;29;20409;-88
2024/03/30 03:37:02;;;;;;;2.10;1.33;;;;;;;9.70;100.00;99192.53;4886516;29;20053;-90
2024/03/30 03:39:28;;;;;;;2.33;1.25;;;;;;;9.71;100.00;99199.47;4895625;29;20036;-83
2024/03/30 03:41:54;;;;;;;1.35;0.93;;;;;;;9.70;100.00;99198.63;4909324;29;20048;-89
2024/03/30 03:44:23;;;;;;;1.20;1.08;;;;;;;9.71;100.00;99192.50;4906913;29;20044;-89
2024/03/30 03:46:49;;;;;;;1.50;1.17;;;;;;;9.68;100.00;99174.28;4890135;29;20045;-85
2024/03/30 03:49:15;;;;;;;0.75;0.75;;;;;;;9.69;100.00;99172.53;4905760;29;20111;-87
2024/03/30 03:51:41;;;;;;;1.02;1.02;;;;;;;9.68;100.00;99179.50;4906036;29;20071;-89
2024/03/30 03:54:07;;;;;;;1.17;0.80;;;;;;;9.68;100.00;99178.66;4905740;29;20052;-87
2024/03/30 03:56:34;;;;;;;1.30;1.20;;;;;;;9.67;100.00;99175.19;4902804;29;20787;-87
2024/03/30 03:58:59;;;;;;;1.13;1.13;;;;;;;9.67;100.00;99176.94;4904105;29;20056;-90
2024/03/30 04:01:26;;;;;;;1.45;1.40;;;;;;;9.65;100.00;99177.00;4900673;29;20053;-88
2024/03/30 04:03:52;;;;;;;0.90;0.90;;;;;;;9.63;100.00;99173.56;4892204;29;20048;-87
2024/03/30 04:06:18;;;;;;;1.17;1.10;;;;;;;9.63;100.00;99167.50;4887335;29;20516;-85
2024/03/30 04:08:46;;;;;;;2.70;1.17;;;;;;;9.59;100.00;99170.19;4902859;29;20078;-84
2024/03/30 04:11:13;;;;;;;1.10;0.90;;;;;;;9.59;100.00;99169.31;4904681;29;20072;-89
2024/03/30 04:13:39;;;;;;;1.42;1.33;;;;;;;9.57;100.00;99155.47;4891049;29;20070;-88
2024/03/30 04:16:07;;;;;;;1.73;1.30;;;;;;;9.54;100.00;99145.97;4904335;29;20068;-90
2024/03/30 04:18:33;;;;;;;1.65;0.95;;;;;;;9.52;100.00;99144.31;4902708;29;20048;-90
2024/03/30 04:21:06;;;;;;;1.38;1.10;;;;;;;9.48;100.00;99143.53;4909158;29;20040;-84
2024/03/30 04:23:34;;;;;;;0.93;0.93;;;;;;;9.48;100.00;99142.66;4901798;29;20067;-86
2024/03/30 04:26:09;;;;;;;1.20;0.90;;;;;;;9.48;100.00;99146.13;4903316;29;20040;-90
2024/03/30 04:28:36;;;;;;;0.93;0.80;;;;;;;9.50;100.00;99143.47;4893791;29;20044;-88
2024/03/30 04:31:07;;;;;;;1.27;1.17;;;;;;;9.50;100.00;99140.84;4889936;29;20548;-83
2024/03/30 04:33:34;;;;;;;0.70;0.70;;;;;;;9.51;100.00;99138.19;4908855;29;20112;-84
2024/03/30 04:36:04;;;;;;;0.93;0.93;;;;;;;9.53;100.00;99133.78;4904864;29;20052;-83
2024/03/30 04:38:32;;;;;;;1.65;0.75;;;;;;;9.54;100.00;99137.25;4906447;29;20056;-89
2024/03/30 04:41:10;;;;;;;0.70;0.70;;;;;;;9.55;100.00;99133.75;4891340;29;20097;-87
2024/03/30 04:43:36;;;;;;;0.95;0.95;;;;;;;9.56;100.00;99138.06;4915331;29;20040;-90
2024/03/30 04:46:06;;;;;;;0.98;0.98;;;;;;;9.55;100.00;99131.97;4905580;29;20076;-88
2024/03/30 04:48:32;;;;;;;1.23;1.17;;;;;;;9.53;100.00;99131.19;4907305;29;20092;-89
2024/03/30 04:51:01;;;;;;;1.35;1.13;;;;;;;9.55;100.00;99125.91;4891491;29;20056;-85
2024/03/30 04:53:35;;;;;;;3.33;1.50;;;;;;;9.54;100.00;99119.84;4892000;29;20044;-87
2024/03/30 04:56:07;;;;;;;1.00;1.00;;;;;;;9.53;100.00;99123.34;4891591;29;20658;-83
2024/03/30 04:58:33;;;;;;;2.13;1.20;;;;;;;9.55;100.00;99131.13;4906123;29;20044;-86
2024/03/30 05:01:05;;;;;;;2.00;0.85;;;;;;;9.54;100.00;99132.03;4897414;29;20329;-86
2024/03/30 05:03:32;;;;;;;2.80;1.15;;;;;;;9.55;100.00;99124.13;4890823;29;20428;-84
2024/03/30 05:06:01;;;;;;;2.08;1.40;;;;;;;9.56;100.00;99125.00;4898061;29;20136;-89
2024/03/30 05:08:27;;;;;;;1.30;1.30;;;;;;;9.52;100.00;99116.41;4895755;29;20074;-84
2024/03/30 05:10:57;;;;;;;1.90;1.80;;;;;;;9.55;100.00;99110.25;4905587;29;20048;-87
2024/03/30 05:13:26;;;;;;;1.20;1.20;;;;;;;9.52;100.00;99107.72;4914284;29;20076;-85
2024/03/30 05:15:53;;;;;;;1.80;1.45;;;;;;;9.53;100.00;99114.63;4892606;29;20056;-90
2024/03/30 05:18:26;;;;;;;1.52;1.42;;;;;;;9.50;100.00;99110.34;4892646;29;20055;-86
2024/03/30 05:20:59;;;;;;;1.55;1.48;;;;;;;9.51;100.00;99108.63;4893086;29;20039;-87
2024/03/30 05:23:29;;;;;;;1.20;1.20;;;;;;;9.50;100.00;99106.91;4882432;29;20083;-87
2024/03/30 05:26:02;;;;;;;1.73;1.25;;;;;;;9.47;100.00;99107.00;4892016;29;20048;-85
2024/03/30 05:28:30;;;;;;;2.15;2.05;;;;;;;9.49;100.00;99111.28;4880573;29;20044;-90
2024/03/30 05:30:59;;;;;;;1.02;1.02;;;;;;;9.50;100.00;99107.75;4890031;29;20056;-87
2024/03/30 05:33:26;;;;;;;1.73;1.63;;;;;;;9.49;100.00;99113.03;4916324;29;20092;-86
2024/03/30 05:35:55;;;;;;;2.55;1.70;;;;;;;9.50;100.00;99107.75;4898152;29;20579;-89
2024/03/30 05:38:21;;;;;;;2.05;1.65;;;;;;;9.53;100.00;99112.91;4912745;29;20087;-89
2024/03/30 05:40:59;;;;;;;2.03;1.70;;;;;;;9.57;100.00;99106.69;4891830;29;20049;-88
2024/03/30 05:43:25;;;;;;;1.95;1.85;;;;;;;9.60;100.00;99111.81;4910562;29;20040;-87
2024/03/30 05:45:58;;;;;;;2.28;1.85;;;;;;;9.62;100.00;99110.91;4898371;29;20564;-85
2024/03/30 05:48:24;;;;;;;2.80;1.67;;;;;;;9.67;100.00;99111.63;4892437;29;20044;-86
2024/03/30 05:50:52;;;;;;;3.33;2.40;;;;;;;9.73;100.00;99104.44;4887951;29;20504;-87
2024/03/30 05:53:18;;;;;;;2.33;1.98;;;;;;;9.77;100.00;99100.84;4893430;29;20044;-87
2024/03/30 05:55:45;;;;;;;2.40;2.20;;;;;;;9.89;100.00;99102.22;4925346;29;20519;-86
2024/03/30 05:58:11;;;;;;;2.15;2.05;;;;;;;9.84;100.00;99105.88;4894692;29;20039;-88
2024/03/30 06:00:38;;;;;;;3.22;1.95;;;;;;;9.92;100.00;99102.13;4907575;29;20052;-89
2024/03/30 06:03:04;;;;;;;1.95;1.80;;;;;;;9.92;100.00;99102.13;4907746;29;20116;-88
2024/03/30 06:05:33;;;;;;;2.22;2.05;;;;;;;9.96;100.00;99092.44;4892295;29;20072;-89
2024/03/30 06:07:59;;;;;;;2.35;2.15;;;;;;;10.04;100.00;99094.81;4909218;29;20064;-87
2024/03/30 06:10:28;;;;;;;2.72;2.53;;;;;;;10.03;100.00;99101.78;4902407;29;20051;-83
2024/03/30 06:12:54;;;;;;;2.67;2.35;;;;;;;10.06;100.00;99098.22;4893014;29;20052;-84
2024/03/30 06:15:20;;;;;;;3.63;3.05;;;;;;;10.17;100.00;99092.63;4900169;29;20100;-86
2024/03/30 06:17:46;;;;;;;3.08;2.83;;;;;;;10.21;100.00;99095.13;4889159;29;20063;-84
2024/03/30 06:20:13;;;;;;;4.32;3.05;;;;;;;10.30;100.00;99098.34;4904005;29;20048;-89
2024/03/30 06:22:40;;;;;;;4.70;2.70;;;;;;;10.23;100.00;99097.69;4898625;29;20076;-86
2024/03/30 06:25:07;;;;;;;3.47;2.92;;;;;;;10.21;100.00;99092.50;4885230;29;20139;-84
2024/03/30 06:27:34;;;;;;;4.20;2.80;;;;;;;10.23;100.00;99095.94;4874440;29;20044;-83
2024/03/30 06:30:02;;;;;;;3.40;2.25;;;;;;;10.24;100.00;99094.16;4880951;29;20594;-85
2024/03/30 06:32:28;;;;;;;5.22;2.72;;;;;;;10.35;100.00;99094.72;4878804;29;20072;-86
2024/03/30 06:34:55;;;;;;;2.83;2.55;;;;;;;10.57;100.00;99087.00;4876493;29;20060;-83
2024/03/30 06:37:27;;;;;;;3.75;2.85;;;;;;;10.81;100.00;99088.78;4900053;29;20032;-85
2024/03/30 06:45:23;;;;;;;4.53;2.70;;;;;;;10.88;100.00;99085.06;4906433;29;20781;-89
2024/03/30 06:47:51;;;;;;;5.50;2.80;;;;;;;11.12;100.00;99082.47;4891042;29;20374;-88
2024/03/30 06:50:21;;;;;;;3.15;2.85;;;;;;;11.13;100.00;99076.31;4909768;29;20059;-84
2024/03/30 06:52:47;;;;;;;5.05;2.65;;;;;;;11.39;100.00;99075.34;4909670;29;20056;-88
2024/03/30 06:55:13;;;;;;;6.63;3.90;;;;;;;11.55;100.00;99076.50;4896666;29;20064;-89
2024/03/30 06:57:39;;;;;;;3.47;2.20;;;;;;;11.68;100.00;99073.38;4913668;29;20043;-89
2024/03/30 07:00:10;;;;;;;5.50;2.42;;;;;;;12.22;100.00;99071.28;4893207;29;20402;-88
2024/03/30 07:02:36;;;;;;;3.10;1.60;;;;;;;12.31;100.00;99076.13;4883420;29;20052;-86
2024/03/30 07:05:03;;;;;;;4.13;2.35;;;;;;;12.35;100.00;99080.34;4883959;29;20056;-86
2024/03/30 07:07:29;;;;;;;3.38;2.53;;;;;;;12.48;100.00;99075.44;4902254;29;20040;-91
2024/03/30 07:10:00;;;;;;;1.73;1.63;;;;;;;12.70;100.00;99069.28;4909980;29;20028;-89
2024/03/30 07:12:29;;;;;;;2.47;1.63;;;;;;;13.20;100.00;99071.41;4892176;29;20048;-88
2024/03/30 07:14:55;;;;;;;2.63;1.90;;;;;;;13.52;100.00;99074.41;4920871;29;20052;-89
2024/03/30 07:17:21;;;;;;;2.22;1.83;;;;;;;13.71;94.76;99063.88;4891615;29;20036;-87
2024/03/30 07:19:48;;;;;;;2.75;1.50;;;;;;;13.91;92.85;99059.44;4908230;29;20088;-91
2024/03/30 07:22:16;;;;;;;2.38;1.42;;;;;;;13.81;92.28;99058.19;4889927;29;20143;-87
2024/03/30 07:24:46;;;;;;;1.73;1.60;;;;;;;13.04;97.07;99057.28;4894008;29;20084;-87
2024/03/30 07:27:18;;;;;;;2.00;1.85;;;;;;;12.57;100.00;99048.78;4894721;29;20036;-90
2024/03/30 07:29:51;;;;;;;;;;;;;;;12.27;100.00;99040.47;4911295;29;20061;-89
2024/03/30 07:32:17;;;;;;;1.63;1.08;;;;;;;12.09;100.00;99042.06;4909268;29;19938;-86
2024/03/30 07:34:47;;;;;;;2.70;1.70;;;;;;;12.09;100.00;99052.56;4896642;29;20060;-89
2024/03/30 07:37:14;;;;;;;1.88;1.10;;;;;;;12.07;100.00;99046.50;4892934;29;20052;-85
2024/03/30 07:39:42;;;;;;;3.13;2.53;;;;;;;12.08;100.00;99040.34;4896868;29;20044;-86
2024/03/30 07:42:10;;;;;;;6.63;1.48;;;;;;;12.19;100.00;99037.28;4882883;29;20055;-86
2024/03/30 07:44:40;;;;;;;2.38;1.10;;;;;;;12.28;100.00;99042.16;4910438;29;20028;-87
2024/03/30 07:47:08;;;;;;;2.58;1.58;;;;;;;12.59;100.00;99053.97;4895469;29;20041;-86
2024/03/30 07:49:35;;;;;;;1.50;1.40;;;;;;;13.04;100.00;99046.78;4910985;29;20059;-85
2024/03/30 07:52:02;;;;;;;1.63;1.52;;;;;;;13.59;97.21;99039.94;4888480;29;20044;-86
2024/03/30 07:54:32;;;;;;;1.10;1.10;;;;;;;13.61;95.55;99038.94;4903755;29;20059;-86
2024/03/30 07:57:00;;;;;;;2.33;1.13;;;;;;;14.01;92.58;99036.16;5007141;23;20066;-89
2024/03/30 07:59:30;;;;;;;1.40;0.85;;;;;;;15.14;85.59;99033.06;4925372;29;20067;-88
2024/03/30 08:01:55;;;;;;;1.35;0.98;;;;;;;16.04;78.81;99027.19;4915284;29;20072;-86
2024/03/30 08:04:22;;;;;;;0.88;0.85;;;;;;;15.83;78.24;99033.72;4929755;29;20044;-87
2024/03/30 08:06:49;;;;;;;1.23;1.05;;;;;;;15.15;81.04;99034.78;4927517;29;20055;-89
2024/03/30 08:09:20;;;;;;;1.85;0.70;;;;;;;14.42;85.38;99032.38;4955784;28;20052;-92
2024/03/30 08:11:46;;;;;;;1.27;0.90;;;;;;;14.42;85.64;99038.50;4953337;28;20091;-91
2024/03/30 08:14:16;;;;;;;3.13;1.30;;;;;;;14.49;86.04;99033.78;4939881;29;20039;-91
2024/03/30 08:16:44;;;;;;;2.20;0.68;;;;;;;14.57;84.72;99023.69;4950946;28;20033;-91
2024/03/30 08:19:11;;;;;;;1.00;0.63;;;;;;;15.17;81.23;99033.72;4944628;28;20044;-91
2024/03/30 08:21:40;;;;;;;1.48;0.73;;;;;;;15.74;79.52;99048.22;4959590;28;20071;-91
2024/03/30 08:24:07;;;;;;;2.63;0.52;;;;;;;15.51;78.41;99045.09;4952585;28;20027;-86
2024/03/30 08:26:33;;;;;;;0.70;0.70;;;;;;;15.24;79.90;99051.84;4960534;28;20051;-88
2024/03/30 08:28:59;;;;;;;1.98;0.95;;;;;;;15.39;79.17;99049.22;4927292;29;20480;-88
2024/03/30 08:31:35;;;;;;;2.33;0.77;;;;;;;16.29;75.77;99038.97;4960006;28;20054;-91
2024/03/30 08:34:03;;;;;;;2.33;1.50;;;;;;;16.70;71.26;99038.31;4928962;28;20047;-87
2024/03/30 08:36:30;;;;;;;1.25;0.55;;;;;;;17.19;69.31;99031.84;4944336;28;20514;-92
2024/03/30 08:38:55;;;;;;;1.42;0.70;;;;;;;17.65;69.38;99032.50;4952887;28;20070;-89
2024/03/30 08:41:23;;;;;;;1.45;0.65;;;;;;;17.38;67.77;99037.75;4943975;28;20410;-89
2024/03/30 08:43:49;;;;;;;5.30;1.15;;;;;;;17.71;67.39;99028.63;4923659;29;20055;-88
2024/03/30 08:46:16;;;;;;;4.20;0.75;;;;;;;17.34;67.45;99034.47;4931984;29;20142;-88
2024/03/30 08:48:42;;;;;;;6.45;1.60;;;;;;;16.86;69.43;99034.75;4940577;28;20039;-88
2024/03/30 08:51:09;;;;;;;1.77;1.42;;;;;;;16.40;71.56;99048.03;4920864;29;20114;-87
2024/03/30 08:53:35;;;;;;;5.07;1.20;;;;;;;16.27;72.45;99032.94;4932830;28;20044;-91
2024/03/30 08:56:04;;;;;;;3.20;0.57;;;;;;;16.28;72.57;99032.00;4927230;29;20519;-89
2024/03/30 08:58:38;;;;;;;5.72;1.17;;;;;;;16.22;73.26;99027.06;4945081;29;20035;-94
2024/03/30 09:01:06;;;;;;;5.18;1.92;;;;;;;16.41;72.36;99026.81;4962504;28;20039;-88
2024/03/30 09:03:33;;;;;;;4.57;1.48;;;;;;;17.01;70.54;99025.91;4922656;28;20462;-91
2024/03/30 09:06:03;;;;;;;3.92;1.35;;;;;;;17.56;68.79;99027.81;4940148;28;20051;-88
2024/03/30 09:08:29;;;;;;;8.45;1.25;;;;;;;17.52;67.34;99027.13;4923735;29;20127;-87
2024/03/30 09:10:55;;;;;;;8.60;1.23;;;;;;;17.80;66.41;99028.88;4968449;28;20137;-89
2024/03/30 09:13:21;;;;;;;4.07;1.50;;;;;;;18.61;63.75;99013.81;4954042;28;20148;-88
2024/03/30 09:15:49;;;;;;;9.98;1.35;;;;;;;19.47;60.34;98993.69;4910748;28;20054;-86
2024/03/30 09:18:15;;;;;;;7.78;1.48;;;;;;;20.22;57.82;98993.56;4943949;29;20027;-86
2024/03/30 09:20:42;;;;;;;12.40;2.00;;;;;;;20.11;58.00;99018.28;4955539;28;20116;-89
2024/03/30 09:23:08;;;;;;;6.78;2.03;;;;;;;19.42;58.39;99009.09;4913898;29;20046;-88
2024/03/30 09:28:54;;;;;;;6.30;1.35;;;;;;;17.96;63.17;99015.50;4960577;28;20146;-87
2024/03/30 09:31:20;;;;;;;10.57;2.13;;;;;;;17.72;64.15;99022.34;4935522;28;20053;-87
2024/03/30 09:33:46;;;;;;;7.15;1.80;;;;;;;17.79;64.16;99023.69;4939731;29;20043;-87
2024/03/30 09:36:14;;;;;;;7.43;1.75;;;;;;;17.62;64.46;99028.25;4912658;29;20134;-87
2024/03/30 09:38:45;;;;;;;12.70;1.83;;;;;;;17.41;64.89;99021.69;4945453;29;20059;-90
2024/03/30 09:41:18;;;;;;;12.95;2.60;;;;;;;17.40;65.57;99025.28;4970961;28;20138;-87
2024/03/30 09:43:47;;;;;;;9.73;1.90;;;;;;;17.46;66.08;99014.31;4938348;28;20055;-87
2024/03/30 09:46:15;;;;;;;14.05;2.90;;;;;;;18.26;63.91;99018.88;4958625;29;20078;-91
2024/03/30 09:48:44;;;;;;;8.23;2.67;;;;;;;18.76;61.68;99037.56;5048217;23;20302;-88
2024/03/30 09:53:56;;;;;;;;;;;;;;;18.79;60.50;99018.81;4930217;29;20122;-89
2024/03/30 09:56:26;;;;;;;11.57;2.05;;;;;;;18.81;61.12;99023.06;4950546;28;19954;-88
2024/03/30 09:58:55;;;;;;;8.57;3.10;;;;;;;18.80;61.22;99026.66;4931376;29;20048;-88
2024/03/30 10:01:20;;;;;;;14.20;3.13;;;;;;;18.78;60.59;99033.03;4943300;29;20047;-87
2024/03/30 10:03:49;;;;;;;26.40;3.08;;;;;;;18.50;59.89;99034.91;4929539;29;20043;-86
2024/03/30 10:06:27;;;;;;;19.58;3.47;;;;;;;18.18;61.60;99033.47;4938361;29;20075;-88
2024/03/30 10:09:04;;;;;;;7.88;2.25;;;;;;;18.23;62.04;99029.69;4948918;29;20055;-86
2024/03/30 10:11:32;;;;;;;25.52;4.20;;;;;;;18.10;61.70;99037.59;4952408;28;20068;-89
2024/03/30 10:14:15;;;;;;;12.10;4.25;;;;;;;17.84;62.91;99034.81;4957206;29;20031;-88
2024/03/30 10:16:45;;;;;;;17.23;3.25;;;;;;;17.62;62.81;99046.78;4948636;29;20047;-89
2024/03/30 10:19:17;;;;;;;15.65;3.72;;;;;;;17.59;61.96;99040.84;4947520;29;20094;-89
2024/03/30 10:21:54;;;;;;;20.52;3.60;;;;;;;17.56;62.46;99046.31;4919349;29;20027;-89
2024/03/30 10:24:26;;;;;;;12.07;2.72;;;;;;;17.57;61.30;99050.66;4938844;29;20054;-86
2024/03/30 10:26:51;;;;;;;12.98;4.05;;;;;;;17.71;61.33;99044.50;4924551;29;20071;-89
2024/03/30 10:29:18;;;;;;;24.30;5.88;;;;;;;17.91;61.53;99045.84;4943369;29;20055;-87
2024/03/30 10:31:44;;;;;;;10.77;3.47;;;;;;;17.95;61.44;99045.59;4917974;29;20515;-88
2024/03/30 10:34:11;;;;;;;15.35;3.38;;;;;;;17.82;61.00;99045.50;4917458;29;20088;-88
2024/03/30 10:36:38;;;;;;;15.80;2.75;;;;;;;17.63;62.00;99053.78;4925171;29;20427;-89
2024/03/30 10:39:12;;;;;;;20.40;3.40;;;;;;;17.64;62.17;99057.28;4927448;29;20084;-88
2024/03/30 10:41:39;;;;;;;19.55;3.10;;;;;;;17.52;62.63;99066.81;4912225;29;20050;-88
2024/03/30 10:44:07;;;;;;;17.15;3.70;;;;;;;17.58;61.45;99057.66;4907045;29;20048;-87
2024/03/30 10:46:37;;;;;;;12.50;3.55;;;;;;;17.41;62.44;99053.44;4915224;29;20051;-88
2024/03/30 10:49:06;;;;;;;20.40;4.25;;;;;;;17.37;62.76;99055.44;4914726;29;20056;-88
2024/03/30 10:51:33;;;;;;;16.73;3.83;;;;;;;17.42;62.59;99048.06;4917340;29;20131;-87
2024/03/30 10:54:08;;;;;;;11.48;2.85;;;;;;;17.42;63.05;99052.50;4918599;29;20043;-87
2024/03/30 10:56:37;;;;;;;13.48;3.03;;;;;;;17.36;62.98;99051.94;4926378;29;20044;-89
2024/03/30 10:59:07;;;;;;;17.52;3.58;;;;;;;17.31;62.86;99064.59;4917561;29;20048;-89
2024/03/30 11:01:36;;;;;;;16.08;2.78;;;;;;;17.37;63.05;99066.00;4916779;29;20131;-90
2024/03/30 11:04:04;;;;;;;14.32;3.22;;;;;;;17.46;63.12;99064.59;4920918;29;20107;-88
2024/03/30 11:06:30;;;;;;;17.85;3.47;;;;;;;17.45;62.59;99070.81;4901669;29;20046;-87
2024/03/30 11:09:00;;;;;;;17.02;2.90;;;;;;;17.41;62.32;99067.50;4919081;29;20075;-88
2024/03/30 11:11:26;;;;;;;17.95;3.38;;;;;;;17.34;61.76;99074.16;4923787;29;20028;-89
2024/03/30 11:13:53;;;;;;;20.05;3.67;;;;;;;17.26;61.80;99076.41;4905956;29;20048;-88
2024/03/30 11:16:21;;;;;;;13.85;2.88;;;;;;;17.19;61.96;99076.78;4904693;29;20052;-90
2024/03/30 11:19:16;;;;;;;10.80;2.88;;;;;;;17.23;62.58;99080.06;4931158;29;20027;-89
2024/03/30 11:22:08;;;;;;;17.00;3.45;;;;;;;17.17;63.16;99061.97;4907787;29;20044;-88
2024/03/30 11:24:42;;;;;;;21.70;4.30;;;;;;;17.09;63.20;99064.22;4913245;29;20040;-88
2024/03/30 11:27:11;;;;;;;21.40;5.18;;;;;;;17.11;63.58;99076.41;4935421;29;20274;-89
2024/03/30 11:30:03;;;;;;;17.80;2.75;;;;;;;17.06;64.21;99069.69;4913180;29;20024;-91
2024/03/30 11:32:39;;;;;;;16.20;3.58;;;;;;;17.07;64.45;99058.19;5025117;23;20091;-87
2024/03/30 11:35:17;;;;;;;15.68;3.17;;;;;;;17.00;64.57;99063.84;4935059;29;20073;-92
2024/03/30 11:37:47;;;;;;;14.55;4.45;;;;;;;16.93;64.90;99061.66;4935224;29;20127;-87
2024/03/30 11:40:32;;;;;;;10.60;3.72;;;;;;;16.89;64.87;99053.03;4936166;29;20113;-86
2024/03/30 11:43:09;;;;;;;22.95;4.07;;;;;;;16.80;65.13;99046.50;4922146;29;20052;-87
2024/03/30 11:45:38;;;;;;;11.02;3.58;;;;;;;16.74;65.43;99025.75;4912074;29;20095;-87